Time;durP1;ratioP1;P1;durP2;ratioP2;P2;SDS_P1;SDS_P2;PMS_P1;PMS_P2;Temp;Humidity;BMP_temperature;BMP_pressure;BME280_temperature;BME280_humidity;BME280_pressure;Samples;Min_cycle;Max_cycle;Signal;HPM_P1;HPM_P2
2022/11/19 00:00:41;0.00;0.00;0.62;0.00;0.00;0.62;2.83;1.30;;;21.70;25.80;;;;;;2255540;61;20446;-67
2022/11/19 00:03:32;0.00;0.00;0.62;0.00;0.00;0.62;1.70;1.03;;;21.70;25.30;;;;;;2255762;61;20366;-68
2022/11/19 00:06:18;0.00;0.00;0.62;0.00;0.00;0.62;2.20;1.30;;;21.70;25.30;;;;;;2256124;61;20446;-67
2022/11/19 00:09:04;0.00;0.00;0.62;0.00;0.00;0.62;1.63;1.20;;;21.70;25.30;;;;;;2256469;61;20382;-67
2022/11/19 00:14:54;0.00;0.00;0.62;0.00;0.00;0.62;1.83;1.03;;;21.70;25.30;;;;;;2255855;61;20366;-67
2022/11/19 00:17:38;0.00;0.00;0.62;0.00;0.00;0.62;1.60;1.10;;;21.70;25.30;;;;;;2255920;61;20389;-68
2022/11/19 00:20:23;0.00;0.00;0.62;0.00;0.00;0.62;2.23;1.10;;;21.70;25.30;;;;;;2256124;61;20362;-68
2022/11/19 00:23:08;0.00;0.00;0.62;0.00;0.00;0.62;1.60;1.00;;;21.70;25.30;;;;;;2256225;61;20429;-67
2022/11/19 00:25:53;0.00;0.00;0.62;0.00;0.00;0.62;1.70;1.10;;;21.70;25.30;;;;;;2255657;61;20354;-67
2022/11/19 00:28:40;0.00;0.00;0.62;0.00;0.00;0.62;1.50;0.90;;;21.60;25.20;;;;;;2255430;61;20425;-67
2022/11/19 00:31:25;0.00;0.00;0.62;0.00;0.00;0.62;3.07;1.30;;;21.70;25.90;;;;;;2256408;61;20470;-68
2022/11/19 00:34:11;0.00;0.00;0.62;0.00;0.00;0.62;1.97;1.07;;;21.70;25.30;;;;;;2255906;61;20362;-67
2022/11/19 00:36:55;0.00;0.00;0.62;0.00;0.00;0.62;1.70;1.17;;;21.60;25.30;;;;;;2255895;61;20366;-67
2022/11/19 00:39:39;0.00;0.00;0.62;0.00;0.00;0.62;1.50;0.83;;;21.60;25.80;;;;;;2255915;61;20428;-67
2022/11/19 00:42:24;0.00;0.00;0.62;0.00;0.00;0.62;1.70;1.20;;;21.60;25.80;;;;;;2255835;61;20982;-67
2022/11/19 00:45:10;0.00;0.00;0.62;0.00;0.00;0.62;1.50;0.90;;;21.60;25.30;;;;;;2256045;61;20935;-67
2022/11/19 00:47:55;0.00;0.00;0.62;0.00;0.00;0.62;1.60;1.00;;;21.60;25.30;;;;;;2255845;61;20404;-67
2022/11/19 00:50:41;0.00;0.00;0.62;0.00;0.00;0.62;1.60;0.90;;;21.60;25.30;;;;;;2256031;61;20389;-67
2022/11/19 00:53:26;0.00;0.00;0.62;0.00;0.00;0.62;1.77;1.17;;;21.60;25.30;;;;;;2256289;61;20377;-64
2022/11/19 00:56:13;0.00;0.00;0.62;0.00;0.00;0.62;1.50;1.00;;;21.60;25.30;;;;;;2255524;61;20832;-65
2022/11/19 00:58:58;0.00;0.00;0.62;0.00;0.00;0.62;1.70;1.17;;;21.60;25.40;;;;;;2255813;61;20390;-70
2022/11/19 01:01:44;0.00;0.00;0.62;0.00;0.00;0.62;2.63;0.90;;;21.60;25.40;;;;;;2255700;61;20381;-66
2022/11/19 01:04:29;0.00;0.00;0.62;0.00;0.00;0.62;1.60;0.90;;;21.60;25.50;;;;;;2255972;61;20370;-67
2022/11/19 01:07:13;0.00;0.00;0.62;0.00;0.00;0.62;1.47;1.00;;;21.60;25.50;;;;;;2255731;61;20810;-67
2022/11/19 01:09:58;0.00;0.00;0.62;0.00;0.00;0.62;1.47;0.80;;;21.60;25.50;;;;;;2255984;61;20928;-67
2022/11/19 01:16:07;0.00;0.00;0.62;0.00;0.00;0.62;1.63;0.90;;;21.60;25.50;;;;;;2243442;61;20809;-67
2022/11/19 01:18:53;0.00;0.00;0.62;0.00;0.00;0.62;2.10;0.90;;;21.60;25.40;;;;;;2255703;61;20389;-67
2022/11/19 01:21:38;0.00;0.00;0.62;0.00;0.00;0.62;1.90;1.03;;;21.60;25.40;;;;;;2255881;61;20758;-67
2022/11/19 01:24:23;0.00;0.00;0.62;0.00;0.00;0.62;1.73;1.20;;;21.60;25.90;;;;;;2256232;61;20770;-66
2022/11/19 01:27:07;0.00;0.00;0.62;0.00;0.00;0.62;1.70;0.93;;;21.60;25.40;;;;;;2256093;61;20940;-67
2022/11/19 01:29:52;0.00;0.00;0.62;0.00;0.00;0.62;1.50;1.10;;;21.60;25.40;;;;;;2255873;61;20456;-67
2022/11/19 01:32:37;0.00;0.00;0.62;0.00;0.00;0.62;1.60;1.07;;;21.60;25.40;;;;;;2255980;61;20386;-67
2022/11/19 01:35:23;0.00;0.00;0.62;0.00;0.00;0.62;1.90;1.00;;;21.60;25.40;;;;;;2255530;61;20342;-67
2022/11/19 01:38:08;0.00;0.00;0.62;0.00;0.00;0.62;1.60;1.00;;;21.60;25.40;;;;;;2256432;61;20386;-67
2022/11/19 01:40:54;0.00;0.00;0.62;0.00;0.00;0.62;1.50;0.97;;;21.60;25.40;;;;;;2255812;61;20421;-67
2022/11/19 01:43:43;0.00;0.00;0.62;0.00;0.00;0.62;1.80;1.30;;;21.60;25.40;;;;;;2255743;61;20525;-66
2022/11/19 01:46:30;0.00;0.00;0.62;0.00;0.00;0.62;1.53;1.00;;;21.60;25.30;;;;;;2256073;61;20358;-67
2022/11/19 01:49:18;0.00;0.00;0.62;0.00;0.00;0.62;1.50;1.00;;;21.60;25.30;;;;;;2255925;61;20509;-68
2022/11/19 01:52:04;0.00;0.00;0.62;0.00;0.00;0.62;2.20;1.40;;;21.60;25.30;;;;;;2255865;61;20908;-68
2022/11/19 01:54:53;0.00;0.00;0.62;0.00;0.00;0.62;1.83;1.00;;;21.60;25.30;;;;;;2255856;61;20411;-67
2022/11/19 01:57:39;0.00;0.00;0.62;0.00;0.00;0.62;2.00;1.20;;;21.60;25.30;;;;;;2254939;61;20621;-66
2022/11/19 02:00:25;0.00;0.00;0.62;0.00;0.00;0.62;2.53;1.73;;;21.50;25.20;;;;;;2255917;61;20897;-66
2022/11/19 02:03:11;0.00;0.00;0.62;0.00;0.00;0.62;1.90;1.40;;;21.50;25.70;;;;;;2255592;61;20413;-65
2022/11/19 02:05:57;0.00;0.00;0.62;0.00;0.00;0.62;2.47;1.77;;;21.50;25.10;;;;;;2255666;61;20440;-66
2022/11/19 02:08:45;0.00;0.00;0.62;0.00;0.00;0.62;3.90;1.97;;;21.50;24.90;;;;;;2256357;61;20389;-66
2022/11/19 02:12:05;0.00;0.00;0.62;0.00;0.00;0.62;3.00;2.23;;;21.50;24.90;;;;;;2256415;61;20436;-66
2022/11/19 02:15:10;0.00;0.00;0.62;0.00;0.00;0.62;3.90;2.67;;;21.50;24.80;;;;;;2256923;61;20369;-66
2022/11/19 02:18:23;0.00;0.00;0.62;0.00;0.00;0.62;2.50;2.20;;;21.50;24.70;;;;;;2255976;61;20820;-66
2022/11/19 02:21:20;0.00;0.00;0.62;0.00;0.00;0.62;3.77;2.80;;;21.50;24.60;;;;;;2256554;61;20373;-66
2022/11/19 02:24:49;0.00;0.00;0.62;0.00;0.00;0.62;3.37;2.60;;;21.50;24.50;;;;;;2256492;61;20366;-65
2022/11/19 02:28:08;0.00;0.00;0.62;0.00;0.00;0.62;3.30;2.67;;;21.50;24.50;;;;;;2252360;61;20381;-66
2022/11/19 02:30:59;0.00;0.00;0.62;0.00;0.00;0.62;3.80;3.00;;;21.40;24.30;;;;;;2256516;61;20362;-67
2022/11/19 02:33:53;0.00;0.00;0.62;0.00;0.00;0.62;4.20;3.20;;;21.40;24.20;;;;;;2256670;61;20750;-66
2022/11/19 02:36:46;0.00;0.00;0.62;0.00;0.00;0.62;4.50;2.90;;;21.40;24.20;;;;;;2256097;61;20417;-66
2022/11/19 02:39:39;0.00;0.00;0.62;0.00;0.00;0.62;3.97;2.90;;;21.40;24.10;;;;;;2256437;61;20378;-66
2022/11/19 02:42:29;0.00;0.00;0.62;0.00;0.00;0.62;3.87;3.37;;;21.30;24.00;;;;;;2255974;61;20436;-67
2022/11/19 02:45:19;0.00;0.00;0.62;0.00;0.00;0.62;4.37;3.10;;;21.30;24.00;;;;;;2256704;61;20358;-67
2022/11/19 02:48:12;0.00;0.00;0.62;0.00;0.00;0.62;3.50;2.53;;;21.30;24.00;;;;;;2256313;61;20910;-66
2022/11/19 02:51:00;0.00;0.00;0.62;0.00;0.00;0.62;4.90;3.53;;;21.30;24.00;;;;;;2256168;61;20438;-66
2022/11/19 02:53:46;0.00;0.00;0.62;0.00;0.00;0.62;4.50;3.37;;;21.30;23.90;;;;;;2256243;61;20386;-65
2022/11/19 02:56:50;0.00;0.00;0.62;0.00;0.00;0.62;5.20;3.60;;;21.30;23.90;;;;;;2256124;61;20357;-66
2022/11/19 03:05:59;0.00;0.00;0.62;0.00;0.00;0.62;3.90;3.00;;;21.20;23.80;;;;;;2255986;61;20381;-66
2022/11/19 03:08:45;0.00;0.00;0.62;0.00;0.00;0.62;4.40;2.87;;;21.10;23.70;;;;;;2256406;61;20461;-65
2022/11/19 03:11:31;0.00;0.00;0.62;0.00;0.00;0.62;4.23;2.90;;;21.10;23.70;;;;;;2255640;61;20374;-65
2022/11/19 03:17:30;0.00;0.00;0.62;0.00;0.00;0.62;3.47;2.70;;;21.10;23.60;;;;;;2256186;61;20410;-65
2022/11/19 03:20:23;0.00;0.00;0.62;0.00;0.00;0.62;4.40;3.20;;;21.10;23.70;;;;;;2256101;61;20374;-66
2022/11/19 03:23:16;0.00;0.00;0.62;0.00;0.00;0.62;3.40;3.10;;;21.00;23.60;;;;;;2256535;61;20925;-65
2022/11/19 03:26:11;0.00;0.00;0.62;0.00;0.00;0.62;4.17;2.77;;;21.00;23.60;;;;;;2256185;61;20412;-65
2022/11/19 03:28:59;0.00;0.00;0.62;0.00;0.00;0.62;5.10;3.10;;;21.00;23.60;;;;;;2256781;61;20397;-65
2022/11/19 03:31:50;0.00;0.00;0.62;0.00;0.00;0.62;4.50;3.20;;;21.00;23.50;;;;;;2256361;61;20381;-65
2022/11/19 03:34:36;0.00;0.00;0.62;0.00;0.00;0.62;4.60;3.07;;;20.90;23.40;;;;;;2255927;61;20398;-66
2022/11/19 03:37:23;0.00;0.00;0.62;0.00;0.00;0.62;4.47;3.20;;;20.90;23.40;;;;;;2256179;61;20366;-66
2022/11/19 03:40:14;0.00;0.00;0.62;0.00;0.00;0.62;3.50;2.90;;;20.90;23.40;;;;;;2256183;61;20968;-66
2022/11/19 03:43:01;0.00;0.00;0.62;0.00;0.00;0.62;3.37;3.07;;;20.90;23.40;;;;;;2256227;61;20409;-66
2022/11/19 03:45:50;0.00;0.00;0.62;0.00;0.00;0.62;3.70;2.93;;;20.90;23.30;;;;;;2255775;61;20889;-66
2022/11/19 03:48:35;0.00;0.00;0.62;0.00;0.00;0.62;3.10;2.80;;;20.90;23.30;;;;;;2255609;61;20435;-65
2022/11/19 03:51:27;0.00;0.00;0.62;0.00;0.00;0.62;4.17;2.90;;;20.80;23.80;;;;;;2256608;61;20377;-66
2022/11/19 03:54:12;0.00;0.00;0.62;0.00;0.00;0.62;3.83;3.13;;;20.80;23.30;;;;;;2255688;61;20389;-65
2022/11/19 03:56:58;0.00;0.00;0.62;0.00;0.00;0.62;4.10;3.13;;;20.80;23.30;;;;;;2255936;61;20770;-66
2022/11/19 03:59:44;0.00;0.00;0.62;0.00;0.00;0.62;3.60;2.60;;;20.80;23.30;;;;;;2256241;61;20386;-65
2022/11/19 04:02:29;0.00;0.00;0.62;0.00;0.00;0.62;3.30;2.70;;;20.70;23.20;;;;;;2255881;61;20375;-65
2022/11/19 04:05:14;0.00;0.00;0.62;0.00;0.00;0.62;3.43;3.07;;;20.80;23.30;;;;;;2256208;61;20361;-66
2022/11/19 04:07:58;0.00;0.00;0.62;0.00;0.00;0.62;3.63;3.20;;;20.70;23.20;;;;;;2255479;61;20447;-65
2022/11/19 04:10:43;0.00;0.00;0.62;0.00;0.00;0.62;3.70;2.83;;;20.70;23.20;;;;;;2255564;61;20416;-65
2022/11/19 04:13:29;0.00;0.00;0.62;0.00;0.00;0.62;4.53;3.03;;;20.70;23.20;;;;;;2256613;61;20346;-65
2022/11/19 04:16:13;0.00;0.00;0.62;0.00;0.00;0.62;3.40;3.10;;;20.70;23.20;;;;;;2255595;61;20409;-65
2022/11/19 04:18:58;0.00;0.00;0.62;0.00;0.00;0.62;3.60;2.57;;;20.60;23.00;;;;;;2255990;61;20381;-65
2022/11/19 04:21:43;0.00;0.00;0.62;0.00;0.00;0.62;3.13;2.83;;;20.60;23.00;;;;;;2256280;61;20358;-65
2022/11/19 04:24:27;0.00;0.00;0.62;0.00;0.00;0.62;3.30;3.00;;;20.60;23.00;;;;;;2256025;61;20401;-66
2022/11/19 04:27:12;0.00;0.00;0.62;0.00;0.00;0.62;3.50;2.93;;;20.60;23.00;;;;;;2256200;61;20362;-66
2022/11/19 04:29:58;0.00;0.00;0.62;0.00;0.00;0.62;3.13;2.83;;;20.60;23.00;;;;;;2255647;61;20925;-66
2022/11/19 04:32:42;0.00;0.00;0.62;0.00;0.00;0.62;2.60;2.40;;;20.50;23.50;;;;;;2256175;61;20389;-65
2022/11/19 04:35:27;0.00;0.00;0.62;0.00;0.00;0.62;2.73;2.50;;;20.50;22.90;;;;;;2256471;61;20454;-65
2022/11/19 04:38:13;0.00;0.00;0.62;0.00;0.00;0.62;4.33;2.97;;;20.50;22.90;;;;;;2255839;61;20395;-66
2022/11/19 04:40:57;0.00;0.00;0.62;0.00;0.00;0.62;2.93;2.63;;;20.50;22.90;;;;;;2255774;61;20393;-66
2022/11/19 04:43:42;0.00;0.00;0.62;0.00;0.00;0.62;2.73;2.43;;;20.50;22.90;;;;;;2256233;61;20954;-66
2022/11/19 04:46:28;0.00;0.00;0.62;0.00;0.00;0.62;3.40;2.67;;;20.40;22.90;;;;;;2256029;61;20365;-65
2022/11/19 04:49:12;0.00;0.00;0.62;0.00;0.00;0.62;3.60;2.80;;;20.40;22.90;;;;;;2256091;61;20767;-66
2022/11/19 04:51:57;0.00;0.00;0.62;0.00;0.00;0.62;3.57;2.67;;;20.40;22.90;;;;;;2255381;61;20957;-66
2022/11/19 04:54:42;0.00;0.00;0.62;0.00;0.00;0.62;3.50;2.83;;;20.40;22.90;;;;;;2256113;61;20366;-66
2022/11/19 04:57:26;0.00;0.00;0.62;0.00;0.00;0.62;3.30;2.90;;;20.40;22.90;;;;;;2256146;61;20466;-66
2022/11/19 05:00:13;0.00;0.00;0.62;0.00;0.00;0.62;3.00;2.80;;;20.40;22.90;;;;;;2256106;61;20374;-65
2022/11/19 05:02:59;0.00;0.00;0.62;0.00;0.00;0.62;3.20;2.90;;;20.40;22.90;;;;;;2255660;61;20408;-65
2022/11/19 05:05:44;0.00;0.00;0.62;0.00;0.00;0.62;3.63;2.83;;;20.30;22.90;;;;;;2256240;61;20412;-66
2022/11/19 05:08:29;0.00;0.00;0.62;0.00;0.00;0.62;3.27;2.97;;;20.30;22.80;;;;;;2255879;61;20481;-66
2022/11/19 05:11:14;0.00;0.00;0.62;0.00;0.00;0.62;3.53;2.73;;;20.30;22.80;;;;;;2255838;61;20350;-65
2022/11/19 05:13:58;0.00;0.00;0.62;0.00;0.00;0.62;3.60;2.67;;;20.30;22.80;;;;;;2255983;61;20358;-66
2022/11/19 05:16:43;0.00;0.00;0.62;0.00;0.00;0.62;3.40;2.90;;;20.30;22.80;;;;;;2255956;61;20369;-65
2022/11/19 05:19:29;0.00;0.00;0.62;0.00;0.00;0.62;3.17;2.87;;;20.20;22.70;;;;;;2255100;61;20382;-65
2022/11/19 05:22:14;0.00;0.00;0.62;0.00;0.00;0.62;5.60;3.27;;;20.20;22.70;;;;;;2256166;61;20454;-65
2022/11/19 05:24:58;0.00;0.00;0.62;0.00;0.00;0.62;3.70;3.20;;;20.20;22.60;;;;;;2255582;61;20362;-65
2022/11/19 05:27:43;0.00;0.00;0.62;0.00;0.00;0.62;3.27;2.97;;;20.20;22.60;;;;;;2256156;61;20370;-66
2022/11/19 05:30:28;0.00;0.00;0.62;0.00;0.00;0.62;3.43;3.10;;;20.20;22.60;;;;;;2255733;61;20950;-65
2022/11/19 05:33:12;0.00;0.00;0.62;0.00;0.00;0.62;3.33;2.90;;;20.20;22.60;;;;;;2255179;61;20971;-65
2022/11/19 05:35:58;0.00;0.00;0.62;0.00;0.00;0.62;3.77;3.40;;;20.10;22.50;;;;;;2255856;61;20361;-66
2022/11/19 05:38:43;0.00;0.00;0.62;0.00;0.00;0.62;4.00;3.60;;;20.10;22.50;;;;;;2255804;61;20433;-65
2022/11/19 05:41:28;0.00;0.00;0.62;0.00;0.00;0.62;3.50;2.93;;;20.10;22.50;;;;;;2255765;61;20401;-66
2022/11/19 05:44:12;0.00;0.00;0.62;0.00;0.00;0.62;3.30;3.00;;;20.10;22.40;;;;;;2256631;61;20409;-66
2022/11/19 05:46:58;0.00;0.00;0.62;0.00;0.00;0.62;2.90;2.60;;;20.10;22.40;;;;;;2256046;61;20378;-65
2022/11/19 05:49:43;0.00;0.00;0.62;0.00;0.00;0.62;4.47;3.13;;;20.00;22.40;;;;;;2256984;61;20521;-66
2022/11/19 05:52:29;0.00;0.00;0.62;0.00;0.00;0.62;3.07;2.77;;;20.00;22.40;;;;;;2256244;61;20428;-66
2022/11/19 05:55:15;0.00;0.00;0.62;0.00;0.00;0.62;3.53;3.23;;;20.00;22.40;;;;;;2256355;61;20366;-66
2022/11/19 05:58:00;0.00;0.00;0.62;0.00;0.00;0.62;3.70;3.37;;;20.00;22.40;;;;;;2256082;61;20420;-66
2022/11/19 06:00:44;0.00;0.00;0.62;0.00;0.00;0.62;4.43;3.57;;;20.00;22.40;;;;;;2256678;61;20366;-66
2022/11/19 06:03:29;0.00;0.00;0.62;0.00;0.00;0.62;3.70;3.10;;;20.00;22.40;;;;;;2256141;61;20393;-66
2022/11/19 06:06:13;0.00;0.00;0.62;0.00;0.00;0.62;3.43;2.83;;;19.90;22.30;;;;;;2256612;61;20421;-66
2022/11/19 06:09:00;0.00;0.00;0.62;0.00;0.00;0.62;3.63;3.10;;;19.90;22.30;;;;;;2256068;61;20393;-66
2022/11/19 06:11:48;0.00;0.00;0.62;0.00;0.00;0.62;3.50;3.20;;;19.90;22.30;;;;;;2256953;61;20978;-66
2022/11/19 06:14:33;0.00;0.00;0.62;0.00;0.00;0.62;3.17;2.87;;;19.90;22.30;;;;;;2256465;61;20437;-66
2022/11/19 06:17:18;0.00;0.00;0.62;0.00;0.00;0.62;3.30;3.00;;;19.90;22.30;;;;;;2256025;61;20454;-65
2022/11/19 06:20:07;0.00;0.00;0.62;0.00;0.00;0.62;3.50;3.20;;;19.80;22.30;;;;;;2256486;61;20384;-65
2022/11/19 06:22:52;0.00;0.00;0.62;0.00;0.00;0.62;3.63;3.10;;;19.80;22.40;;;;;;2256565;61;20365;-66
2022/11/19 06:25:38;0.00;0.00;0.62;0.00;0.00;0.62;3.17;2.87;;;19.80;22.40;;;;;;2256327;61;20868;-66
2022/11/19 06:28:23;0.00;0.00;0.62;0.00;0.00;0.62;3.27;2.97;;;19.80;22.40;;;;;;2256492;61;20866;-66
2022/11/19 06:31:08;0.00;0.00;0.62;0.00;0.00;0.62;3.30;3.00;;;19.80;22.40;;;;;;2256231;61;20454;-66
2022/11/19 06:33:52;0.00;0.00;0.62;0.00;0.00;0.62;3.73;3.37;;;19.80;22.40;;;;;;2257103;61;20747;-66
2022/11/19 06:36:37;0.00;0.00;0.62;0.00;0.00;0.62;3.00;2.70;;;19.80;22.40;;;;;;2256214;61;20346;-66
2022/11/19 06:39:22;0.00;0.00;0.62;0.00;0.00;0.62;3.40;2.70;;;19.70;22.30;;;;;;2256149;61;20533;-66
2022/11/19 06:45:13;0.00;0.00;0.62;0.00;0.00;0.62;2.90;2.60;;;19.70;22.30;;;;;;2256489;61;20433;-66
2022/11/19 06:47:58;0.00;0.00;0.62;0.00;0.00;0.62;3.17;2.77;;;19.70;22.30;;;;;;2256357;61;20370;-66
2022/11/19 06:50:44;0.00;0.00;0.62;0.00;0.00;0.62;3.33;2.67;;;19.70;22.30;;;;;;2256567;61;20401;-66
2022/11/19 06:53:29;0.00;0.00;0.62;0.00;0.00;0.62;3.17;2.73;;;19.60;22.30;;;;;;2255400;61;20394;-65
2022/11/19 06:56:14;0.00;0.00;0.62;0.00;0.00;0.62;3.40;3.10;;;19.60;22.30;;;;;;2256894;61;20761;-66
2022/11/19 06:59:00;0.00;0.00;0.62;0.00;0.00;0.62;4.00;2.93;;;19.60;22.30;;;;;;2256087;61;20432;-66
2022/11/19 07:01:44;0.00;0.00;0.62;0.00;0.00;0.62;3.50;2.73;;;19.60;22.30;;;;;;2256316;61;20369;-66
2022/11/19 07:04:29;0.00;0.00;0.62;0.00;0.00;0.62;3.13;2.80;;;19.60;22.30;;;;;;2256456;61;20361;-66
2022/11/19 07:07:14;0.00;0.00;0.62;0.00;0.00;0.62;2.93;2.63;;;19.60;22.30;;;;;;2256228;61;20366;-66
2022/11/19 07:09:59;0.00;0.00;0.62;0.00;0.00;0.62;3.20;2.90;;;19.60;22.20;;;;;;2256151;61;20445;-66
2022/11/19 07:12:43;0.00;0.00;0.62;0.00;0.00;0.62;4.27;3.50;;;19.60;22.20;;;;;;2256313;61;20398;-66
2022/11/19 07:15:29;0.00;0.00;0.62;0.00;0.00;0.62;2.57;2.30;;;19.50;22.20;;;;;;2256551;61;20787;-66
2022/11/19 07:18:14;0.00;0.00;0.62;0.00;0.00;0.62;3.37;3.07;;;19.50;22.20;;;;;;2256482;61;20969;-66
2022/11/19 07:20:59;0.00;0.00;0.62;0.00;0.00;0.62;3.60;2.80;;;19.50;22.20;;;;;;2256241;61;20761;-66
2022/11/19 07:23:43;0.00;0.00;0.62;0.00;0.00;0.62;3.47;2.73;;;19.50;22.20;;;;;;2256224;61;20894;-66
2022/11/19 07:26:30;0.00;0.00;0.62;0.00;0.00;0.62;3.33;3.03;;;19.50;22.20;;;;;;2256332;61;20365;-66
2022/11/19 07:29:16;0.00;0.00;0.62;0.00;0.00;0.62;3.20;2.77;;;19.50;22.20;;;;;;2256338;61;20389;-66
2022/11/19 07:32:02;0.00;0.00;0.62;0.00;0.00;0.62;3.60;3.20;;;19.40;22.10;;;;;;2256162;61;20386;-66
2022/11/19 07:34:48;0.00;0.00;0.62;0.00;0.00;0.62;3.30;3.00;;;19.40;22.20;;;;;;2256180;61;20420;-66
2022/11/19 07:37:33;0.00;0.00;0.62;0.00;0.00;0.62;3.17;2.87;;;19.40;22.10;;;;;;2256063;61;20393;-66
2022/11/19 07:40:18;0.00;0.00;0.62;0.00;0.00;0.62;4.57;3.30;;;19.40;22.10;;;;;;2256684;61;20762;-66
2022/11/19 07:43:03;0.00;0.00;0.62;0.00;0.00;0.62;3.50;3.10;;;19.40;22.10;;;;;;2256026;61;20366;-66
2022/11/19 07:45:52;0.00;0.00;0.62;0.00;0.00;0.62;3.50;3.20;;;19.40;22.20;;;;;;2255721;61;20370;-66
2022/11/19 07:48:37;0.00;0.00;0.62;0.00;0.00;0.62;2.97;2.50;;;19.40;22.20;;;;;;2256347;61;20933;-66
2022/11/19 07:51:23;0.00;0.00;0.62;0.00;0.00;0.62;2.93;2.40;;;19.40;22.20;;;;;;2256270;61;20843;-67
2022/11/19 07:54:10;0.00;0.00;0.62;0.00;0.00;0.62;4.57;2.87;;;19.30;22.10;;;;;;2255822;61;20392;-67
2022/11/19 07:56:55;0.00;0.00;0.62;0.00;0.00;0.62;3.23;2.90;;;19.40;22.20;;;;;;2256170;61;20389;-67
2022/11/19 07:59:40;0.00;0.00;0.62;0.00;0.00;0.62;3.57;3.00;;;19.30;22.10;;;;;;2255591;61;20461;-68
2022/11/19 08:02:24;0.00;0.00;0.62;0.00;0.00;0.62;4.30;3.67;;;19.30;22.00;;;;;;2256462;61;20366;-67
2022/11/19 08:05:11;0.00;0.00;0.62;0.00;0.00;0.62;4.30;3.90;;;19.30;22.00;;;;;;2256163;61;20361;-66
2022/11/19 08:07:56;0.00;0.00;0.62;0.00;0.00;0.62;3.07;2.70;;;19.30;21.90;;;;;;2255569;61;20898;-66
2022/11/19 08:10:40;0.00;0.00;0.62;0.00;0.00;0.62;3.90;3.30;;;19.30;21.80;;;;;;2256074;61;20412;-71
2022/11/19 08:13:26;0.00;0.00;0.62;0.00;0.00;0.62;3.30;3.00;;;19.30;21.80;;;;;;2256152;61;20373;-70
2022/11/19 08:18:10;0.00;0.00;0.62;0.00;0.00;0.62;3.57;2.77;;;19.30;21.80;;;;;;2255889;61;20365;-65
2022/11/19 08:19:18;0.00;0.00;0.62;0.00;0.00;0.62;3.23;2.60;;;19.30;21.90;;;;;;2256046;61;20380;-69
2022/11/19 08:22:04;0.00;0.00;0.62;0.00;0.00;0.62;3.57;3.27;;;19.30;22.40;;;;;;2256200;61;20349;-72
2022/11/19 08:24:49;0.00;0.00;0.62;0.00;0.00;0.62;4.20;3.70;;;19.30;22.00;;;;;;2256369;61;20373;-71
2022/11/19 08:27:34;0.00;0.00;0.62;0.00;0.00;0.62;3.63;3.20;;;19.20;22.00;;;;;;2256159;61;20794;-67
2022/11/19 08:30:19;0.00;0.00;0.62;0.00;0.00;0.62;3.57;3.07;;;19.30;22.10;;;;;;2255966;61;20358;-68
2022/11/19 08:33:03;0.00;0.00;0.62;0.00;0.00;0.62;3.03;2.70;;;19.30;22.10;;;;;;2256044;61;20921;-72
2022/11/19 08:35:52;0.00;0.00;0.62;0.00;0.00;0.62;3.50;3.13;;;19.30;22.00;;;;;;2255958;61;20370;-68
2022/11/19 08:38:38;0.00;0.00;0.62;0.00;0.00;0.62;3.10;2.80;;;19.30;22.50;;;;;;2255703;61;20386;-70
2022/11/19 08:44:26;0.00;0.00;0.62;0.00;0.00;0.62;3.67;2.80;;;19.30;21.90;;;;;;2255952;61;20389;-74
2022/11/19 08:47:11;0.00;0.00;0.62;0.00;0.00;0.62;4.40;3.00;;;19.30;21.90;;;;;;2256399;61;20363;-67
2022/11/19 08:49:56;0.00;0.00;0.62;0.00;0.00;0.62;5.30;3.17;;;19.30;22.00;;;;;;2255800;61;20425;-67
2022/11/19 08:52:41;0.00;0.00;0.62;0.00;0.00;0.62;4.40;2.60;;;19.30;22.00;;;;;;2255498;61;20389;-67
2022/11/19 08:55:30;0.00;0.00;0.62;0.00;0.00;0.62;3.13;2.83;;;19.30;22.00;;;;;;2256064;61;20462;-69
2022/11/19 08:58:15;0.00;0.00;0.62;0.00;0.00;0.62;4.33;3.40;;;19.30;22.00;;;;;;2255887;61;20386;-68
2022/11/19 09:00:59;0.00;0.00;0.62;0.00;0.00;0.62;5.13;3.50;;;19.30;21.90;;;;;;2255997;61;20420;-69
2022/11/19 09:03:44;0.00;0.00;0.62;0.00;0.00;0.62;3.90;3.03;;;19.30;21.90;;;;;;2255961;61;20365;-71
2022/11/19 09:06:29;0.00;0.00;0.62;0.00;0.00;0.62;4.20;3.80;;;19.40;21.90;;;;;;2255897;61;20373;-69
2022/11/19 09:09:13;0.00;0.00;0.62;0.00;0.00;0.62;3.60;3.03;;;19.40;21.90;;;;;;2256463;61;20385;-68
2022/11/19 09:11:59;0.00;0.00;0.62;0.00;0.00;0.62;3.50;3.13;;;19.40;21.80;;;;;;2255800;61;20389;-70
2022/11/19 09:14:44;0.00;0.00;0.62;0.00;0.00;0.62;3.40;2.80;;;19.40;21.90;;;;;;2255771;61;20370;-67
2022/11/19 09:17:28;0.00;0.00;0.62;0.00;0.00;0.62;4.57;3.50;;;19.40;22.00;;;;;;2255702;61;20398;-66
2022/11/19 09:20:13;0.00;0.00;0.62;0.00;0.00;0.62;4.17;3.37;;;19.40;22.10;;;;;;2256112;61;20369;-66
2022/11/19 09:22:58;0.00;0.00;0.62;0.00;0.00;0.62;3.50;2.83;;;19.50;22.30;;;;;;2255795;61;20928;-66
2022/11/19 09:25:43;0.00;0.00;0.62;0.00;0.00;0.62;4.83;3.17;;;19.50;22.30;;;;;;2256142;61;20410;-66
2022/11/19 09:28:30;0.00;0.00;0.62;0.00;0.00;0.62;4.77;3.60;;;19.50;22.40;;;;;;2255843;61;20394;-66
2022/11/19 09:31:17;0.00;0.00;0.62;0.00;0.00;0.62;6.27;3.83;;;19.60;22.50;;;;;;2256290;61;20366;-66
2022/11/19 09:34:03;0.00;0.00;0.62;0.00;0.00;0.62;4.23;3.40;;;19.60;22.40;;;;;;2255929;61;20393;-66
2022/11/19 09:36:47;0.00;0.00;0.62;0.00;0.00;0.62;4.73;3.87;;;19.60;22.50;;;;;;2255517;61;20767;-65
2022/11/19 09:39:32;0.00;0.00;0.62;0.00;0.00;0.62;4.40;3.80;;;19.60;22.50;;;;;;2256294;61;20429;-66
2022/11/19 09:42:27;0.00;0.00;0.62;0.00;0.00;0.62;4.87;3.87;;;19.60;22.50;;;;;;2255489;61;20373;-66
2022/11/19 09:45:21;0.00;0.00;0.62;0.00;0.00;0.62;5.20;3.90;;;19.70;22.60;;;;;;2255834;61;20921;-66
2022/11/19 09:48:23;0.00;0.00;0.62;0.00;0.00;0.62;4.27;3.80;;;19.70;23.20;;;;;;2255691;61;20414;-67
2022/11/19 09:51:12;0.00;0.00;0.62;0.00;0.00;0.62;6.33;4.23;;;19.80;22.70;;;;;;2255578;61;20424;-66
2022/11/19 09:54:03;0.00;0.00;0.62;0.00;0.00;0.62;7.53;4.87;;;19.80;23.20;;;;;;2256180;61;20370;-67
2022/11/19 09:56:50;0.00;0.00;0.62;0.00;0.00;0.62;5.23;4.50;;;19.80;22.70;;;;;;2255403;61;20425;-67
2022/11/19 09:59:39;0.00;0.00;0.62;0.00;0.00;0.62;5.83;4.70;;;19.80;22.70;;;;;;2255732;61;20831;-67
2022/11/19 10:02:26;0.00;0.00;0.62;0.00;0.00;0.62;6.27;4.83;;;19.80;22.70;;;;;;2255873;61;20897;-67
2022/11/19 10:05:15;0.00;0.00;0.62;0.00;0.00;0.62;5.17;4.33;;;19.90;22.70;;;;;;2255853;61;20420;-67
2022/11/19 10:08:19;0.00;0.00;0.62;0.00;0.00;0.62;4.90;4.40;;;19.90;22.70;;;;;;2255599;61;20358;-67
2022/11/19 10:11:21;0.00;0.00;0.62;0.00;0.00;0.62;5.90;4.43;;;19.90;22.80;;;;;;2255770;61;20369;-67
2022/11/19 10:14:26;0.00;0.00;0.62;0.00;0.00;0.62;6.07;4.80;;;20.00;22.80;;;;;;2255667;61;20361;-67
2022/11/19 10:17:24;0.00;0.00;0.62;0.00;0.00;0.62;7.23;5.63;;;20.10;22.90;;;;;;2255709;61;20365;-67
2022/11/19 10:20:51;0.00;0.00;0.62;0.00;0.00;0.62;6.87;5.87;;;20.10;22.90;;;;;;2255553;61;20409;-67
2022/11/19 10:23:49;0.00;0.00;0.62;0.00;0.00;0.62;5.47;4.73;;;20.10;22.90;;;;;;2256207;61;20369;-67
2022/11/19 10:26:37;0.00;0.00;0.62;0.00;0.00;0.62;6.07;4.93;;;20.10;22.90;;;;;;2255658;61;20361;-67
2022/11/19 10:29:27;0.00;0.00;0.62;0.00;0.00;0.62;5.47;4.70;;;20.20;23.10;;;;;;2256289;61;20839;-67
2022/11/19 10:32:31;0.00;0.00;0.62;0.00;0.00;0.62;5.43;3.90;;;20.20;23.60;;;;;;2256321;61;20394;-67
2022/11/19 10:35:23;0.00;0.00;0.62;0.00;0.00;0.62;6.40;5.60;;;20.20;23.00;;;;;;2256454;61;20416;-67
2022/11/19 10:38:18;0.00;0.00;0.62;0.00;0.00;0.62;5.90;4.93;;;20.20;23.00;;;;;;2256479;61;20428;-68
2022/11/19 10:41:11;0.00;0.00;0.62;0.00;0.00;0.62;7.10;5.53;;;20.30;23.00;;;;;;2256366;61;20361;-68
2022/11/19 10:44:00;0.00;0.00;0.62;0.00;0.00;0.62;6.87;4.83;;;20.30;22.90;;;;;;2256467;61;20926;-68
2022/11/19 10:46:47;0.00;0.00;0.62;0.00;0.00;0.62;6.73;4.63;;;20.30;22.90;;;;;;2256376;61;20936;-68
2022/11/19 10:49:37;0.00;0.00;0.62;0.00;0.00;0.62;5.23;4.53;;;20.30;22.90;;;;;;2256347;61;20427;-68
2022/11/19 10:52:29;0.00;0.00;0.62;0.00;0.00;0.62;7.23;4.80;;;20.40;22.90;;;;;;2256057;61;20924;-68
2022/11/19 10:55:20;0.00;0.00;0.62;0.00;0.00;0.62;5.20;4.70;;;20.40;22.80;;;;;;2256262;61;20366;-68
2022/11/19 10:58:14;0.00;0.00;0.62;0.00;0.00;0.62;6.47;5.77;;;20.50;22.90;;;;;;2255893;61;20456;-68
2022/11/19 11:01:01;0.00;0.00;0.62;0.00;0.00;0.62;7.90;6.43;;;20.50;22.80;;;;;;2256607;61;20370;-68
2022/11/19 11:03:57;0.00;0.00;0.62;0.00;0.00;0.62;7.47;5.37;;;20.50;22.80;;;;;;2255974;61;20454;-68
2022/11/19 11:06:51;0.00;0.00;0.62;0.00;0.00;0.62;6.33;5.17;;;20.60;22.80;;;;;;2256153;61;20393;-68
2022/11/19 11:09:39;0.00;0.00;0.62;0.00;0.00;0.62;6.97;5.00;;;20.60;22.80;;;;;;2256284;61;20415;-68
2022/11/19 11:15:29;0.00;0.00;0.62;0.00;0.00;0.62;7.13;4.97;;;20.70;22.80;;;;;;2256646;61;20376;-68
2022/11/19 11:18:15;0.00;0.00;0.62;0.00;0.00;0.62;5.67;4.57;;;20.70;22.80;;;;;;2256050;61;20386;-68
2022/11/19 11:21:00;0.00;0.00;0.62;0.00;0.00;0.62;6.83;5.00;;;20.80;22.80;;;;;;2256567;61;20435;-68
2022/11/19 11:23:52;0.00;0.00;0.62;0.00;0.00;0.62;5.40;4.43;;;20.80;22.80;;;;;;2256160;61;20366;-68
2022/11/19 11:26:39;0.00;0.00;0.62;0.00;0.00;0.62;5.50;4.70;;;20.80;22.80;;;;;;2256486;61;20366;-68